Time,TemperatureF,DewpointF,PressureIn,WindDirection,WindDirectionDegrees,WindSpeedMPH,WindSpeedGustMPH,Humidity,HourlyPrecipIn,Conditions,Clouds,dailyrainin,SoftwareType,DateUTC
2013-05-26 00:00:00,47.3,36.5,30.30,ENE,67,0.0,0.0,66,0.00,,,-99.99,open2300 version1.11,2013-05-26 04:00:00,
2013-05-26 00:05:00,47.1,36.3,30.30,ENE,67,0.0,0.0,66,0.00,,,-99.99,open2300 version1.11,2013-05-26 04:05:00,
2013-05-26 00:10:00,46.9,36.1,30.30,ENE,67,0.0,0.0,66,0.00,,,-99.99,open2300 version1.11,2013-05-26 04:10:00,
2013-05-26 00:15:00,46.6,36.2,30.30,ENE,67,0.0,0.0,67,0.00,,,-99.99,open2300 version1.11,2013-05-26 04:15:00,
2013-05-26 00:20:00,46.6,36.2,30.30,ENE,67,0.0,0.0,67,0.00,,,-99.99,open2300 version1.11,2013-05-26 04:20:00,
2013-05-26 00:25:00,46.2,35.9,30.30,ENE,67,0.0,0.0,67,0.00,,,-99.99,open2300 version1.11,2013-05-26 04:25:00,
2013-05-26 00:30:00,46.0,36.1,30.30,ENE,67,0.0,0.0,68,0.00,,,-99.99,open2300 version1.11,2013-05-26 04:30:00,
2013-05-26 00:35:00,46.0,36.1,30.30,ENE,67,0.0,0.0,68,0.00,,,-99.99,open2300 version1.11,2013-05-26 04:35:00,
2013-05-26 00:40:00,45.7,35.7,30.30,ENE,67,0.0,0.0,68,0.00,,,-99.99,open2300 version1.11,2013-05-26 04:40:00,
2013-05-26 00:45:00,45.7,36.1,30.30,ENE,67,0.0,0.0,69,0.00,,,-99.99,open2300 version1.11,2013-05-26 04:45:00,
2013-05-26 00:50:00,45.3,35.7,30.29,ENE,67,0.0,0.0,69,0.00,,,-99.99,open2300 version1.11,2013-05-26 04:50:00,
2013-05-26 00:55:00,45.3,35.7,30.29,ENE,67,0.0,0.0,69,0.00,,,-99.99,open2300 version1.11,2013-05-26 04:55:00,
2013-05-26 01:05:00,45.0,35.8,30.29,ENE,67,0.0,0.0,70,0.00,,,-99.99,open2300 version1.11,2013-05-26 05:05:00,
2013-05-26 01:15:00,44.8,35.6,30.29,ENE,67,0.0,0.0,70,0.00,,,-99.99,open2300 version1.11,2013-05-26 05:15:00,
2013-05-26 01:20:00,44.4,35.6,30.29,ENE,67,0.0,0.0,71,0.00,,,-99.99,open2300 version1.11,2013-05-26 05:20:00,
2013-05-26 01:25:00,44.4,35.6,30.29,ENE,67,0.0,0.0,71,0.00,,,-99.99,open2300 version1.11,2013-05-26 05:25:00,
2013-05-26 01:30:00,44.2,35.8,30.29,ENE,67,0.0,0.0,72,0.00,,,-99.99,open2300 version1.11,2013-05-26 05:30:00,
2013-05-26 01:35:00,44.1,35.6,30.29,ENE,67,0.0,0.0,72,0.00,,,-99.99,open2300 version1.11,2013-05-26 05:35:00,
2013-05-26 01:40:00,43.7,35.3,30.29,ENE,67,0.0,0.0,72,0.00,,,-99.99,open2300 version1.11,2013-05-26 05:40:00,
2013-05-26 01:45:00,43.7,35.3,30.29,ENE,67,0.0,0.0,72,0.00,,,-99.99,open2300 version1.11,2013-05-26 05:45:00,
2013-05-26 01:50:00,43.5,35.4,30.29,ENE,67,0.0,0.0,73,0.00,,,-99.99,open2300 version1.11,2013-05-26 05:50:00,
2013-05-26 01:55:00,43.5,35.4,30.29,ENE,67,0.0,0.0,73,0.00,,,-99.99,open2300 version1.11,2013-05-26 05:55:00,
2013-05-26 02:05:00,43.3,35.6,30.29,ENE,67,0.0,0.0,74,0.00,,,-99.99,open2300 version1.11,2013-05-26 06:05:00,
2013-05-26 02:10:00,43.3,35.6,30.29,ENE,67,0.0,0.0,74,0.00,,,-99.99,open2300 version1.11,2013-05-26 06:10:00,
2013-05-26 02:15:00,43.2,35.4,30.29,ENE,67,0.0,0.0,74,0.00,,,-99.99,open2300 version1.11,2013-05-26 06:15:00,
2013-05-26 02:20:00,43.0,35.3,30.28,ENE,67,0.0,0.0,74,0.00,,,-99.99,open2300 version1.11,2013-05-26 06:20:00,
2013-05-26 02:25:00,43.0,35.6,30.29,ENE,67,0.0,0.0,75,0.00,,,-99.99,open2300 version1.11,2013-05-26 06:25:00,
2013-05-26 02:30:00,42.8,35.4,30.28,ENE,67,0.0,0.0,75,0.00,,,-99.99,open2300 version1.11,2013-05-26 06:30:00,
2013-05-26 02:35:00,42.6,35.2,30.29,ENE,67,0.0,0.0,75,0.00,,,-99.99,open2300 version1.11,2013-05-26 06:35:00,
2013-05-26 02:40:00,42.6,35.2,30.28,ENE,67,0.0,0.0,75,0.00,,,-99.99,open2300 version1.11,2013-05-26 06:40:00,
2013-05-26 02:45:00,42.4,35.4,30.28,ENE,67,0.0,0.0,76,0.00,,,-99.99,open2300 version1.11,2013-05-26 06:45:00,
2013-05-26 02:50:00,42.4,35.4,30.28,ENE,67,0.0,0.0,76,0.00,,,-99.99,open2300 version1.11,2013-05-26 06:50:00,
2013-05-26 02:55:00,42.3,35.2,30.28,ENE,67,0.0,0.0,76,0.00,,,-99.99,open2300 version1.11,2013-05-26 06:55:00,
2013-05-26 03:00:00,42.1,35.0,30.28,ENE,67,0.0,0.0,76,0.00,,,-99.99,open2300 version1.11,2013-05-26 07:00:00,
2013-05-26 03:10:00,41.9,34.8,30.28,ENE,67,0.0,0.0,76,0.00,,,-99.99,open2300 version1.11,2013-05-26 07:10:00,
2013-05-26 03:15:00,41.7,35.0,30.28,ENE,67,0.0,0.0,77,0.00,,,-99.99,open2300 version1.11,2013-05-26 07:15:00,
2013-05-26 03:25:00,41.5,34.8,30.28,ENE,67,0.0,0.0,77,0.00,,,-99.99,open2300 version1.11,2013-05-26 07:25:00,
2013-05-26 03:30:00,41.2,34.8,30.28,ENE,67,0.0,0.0,78,0.00,,,-99.99,open2300 version1.11,2013-05-26 07:30:00,
2013-05-26 03:35:00,41.2,34.8,30.29,ENE,67,0.0,0.0,78,0.00,,,-99.99,open2300 version1.11,2013-05-26 07:35:00,
2013-05-26 03:45:00,41.0,34.6,30.29,ENE,67,0.0,0.0,78,0.00,,,-99.99,open2300 version1.11,2013-05-26 07:45:00,
2013-05-26 03:50:00,41.0,34.9,30.29,ENE,67,0.0,0.0,79,0.00,,,-99.99,open2300 version1.11,2013-05-26 07:50:00,
2013-05-26 03:55:00,41.0,34.9,30.28,ENE,67,0.0,0.0,79,0.00,,,-99.99,open2300 version1.11,2013-05-26 07:55:00,
2013-05-26 04:00:00,40.8,34.7,30.29,ENE,67,0.0,0.0,79,0.00,,,-99.99,open2300 version1.11,2013-05-26 08:00:00,
2013-05-26 04:10:00,40.8,34.7,30.29,ENE,67,0.0,0.0,79,0.00,,,-99.99,open2300 version1.11,2013-05-26 08:10:00,
2013-05-26 04:15:00,40.8,34.7,30.29,ENE,67,0.0,0.0,79,0.00,,,-99.99,open2300 version1.11,2013-05-26 08:15:00,
2013-05-26 04:20:00,40.8,34.7,30.28,ENE,67,0.0,0.0,79,0.00,,,-99.99,open2300 version1.11,2013-05-26 08:20:00,
2013-05-26 04:30:00,40.8,34.7,30.29,ENE,67,0.0,0.0,79,0.00,,,-99.99,open2300 version1.11,2013-05-26 08:30:00,
2013-05-26 04:35:00,40.8,35.1,30.29,ENE,67,0.0,0.0,80,0.00,,,-99.99,open2300 version1.11,2013-05-26 08:35:00,
2013-05-26 04:40:00,40.6,34.9,30.29,ENE,67,0.0,0.0,80,0.00,,,-99.99,open2300 version1.11,2013-05-26 08:40:00,
2013-05-26 04:45:00,40.6,34.9,30.29,ENE,67,0.0,0.0,80,0.00,,,-99.99,open2300 version1.11,2013-05-26 08:45:00,
2013-05-26 04:50:00,40.6,34.9,30.29,ENE,67,0.0,0.0,80,0.00,,,-99.99,open2300 version1.11,2013-05-26 08:50:00,
2013-05-26 04:55:00,40.5,34.8,30.29,ENE,67,0.0,0.0,80,0.00,,,-99.99,open2300 version1.11,2013-05-26 08:55:00,
2013-05-26 05:00:00,40.5,34.8,30.29,ENE,67,0.0,0.0,80,0.00,,,-99.99,open2300 version1.11,2013-05-26 09:00:00,
2013-05-26 05:05:00,40.3,34.6,30.29,ENE,67,0.0,0.0,80,0.00,,,-99.99,open2300 version1.11,2013-05-26 09:05:00,
2013-05-26 05:10:00,40.1,34.4,30.29,ENE,67,0.0,0.0,80,0.00,,,-99.99,open2300 version1.11,2013-05-26 09:10:00,
2013-05-26 05:20:00,39.9,34.3,30.29,ENE,67,0.0,0.0,80,0.00,,,-99.99,open2300 version1.11,2013-05-26 09:20:00,
2013-05-26 05:25:00,39.9,34.3,30.29,ENE,67,0.0,0.0,80,0.00,,,-99.99,open2300 version1.11,2013-05-26 09:25:00,
2013-05-26 05:30:00,39.9,34.3,30.29,ENE,67,0.0,0.0,80,0.00,,,-99.99,open2300 version1.11,2013-05-26 09:30:00,
2013-05-26 05:35:00,39.9,34.3,30.29,ENE,67,0.0,0.0,80,0.00,,,-99.99,open2300 version1.11,2013-05-26 09:35:00,
2013-05-26 05:40:00,39.7,34.1,30.29,ENE,67,0.0,0.0,80,0.00,,,-99.99,open2300 version1.11,2013-05-26 09:40:00,
2013-05-26 05:45:00,39.7,34.1,30.29,ENE,67,0.0,0.0,80,0.00,,,-99.99,open2300 version1.11,2013-05-26 09:45:00,
2013-05-26 05:50:00,39.7,34.1,30.30,ENE,67,0.0,0.0,80,0.00,,,-99.99,open2300 version1.11,2013-05-26 09:50:00,
2013-05-26 05:55:00,39.6,33.9,30.30,ENE,67,0.0,0.0,80,0.00,,,-99.99,open2300 version1.11,2013-05-26 09:55:00,
2013-05-26 06:00:00,39.6,33.9,30.30,ENE,67,0.0,0.0,80,0.00,,,-99.99,open2300 version1.11,2013-05-26 10:00:00,
2013-05-26 06:05:00,39.4,33.8,30.30,ENE,67,0.0,0.0,80,0.00,,,-99.99,open2300 version1.11,2013-05-26 10:05:00,
2013-05-26 06:15:00,39.6,33.9,30.31,ENE,67,0.0,0.0,80,0.00,,,-99.99,open2300 version1.11,2013-05-26 10:15:00,
2013-05-26 06:25:00,39.6,33.9,30.31,ENE,67,0.0,0.0,80,0.00,,,-99.99,open2300 version1.11,2013-05-26 10:25:00,
2013-05-26 06:30:00,39.7,34.1,30.31,ENE,67,0.0,0.0,80,0.00,,,-99.99,open2300 version1.11,2013-05-26 10:30:00,
2013-05-26 06:35:00,39.9,34.6,30.31,ENE,67,0.0,0.0,81,0.00,,,-99.99,open2300 version1.11,2013-05-26 10:35:00,
2013-05-26 06:40:00,39.9,34.6,30.31,ENE,67,0.0,0.0,81,0.00,,,-99.99,open2300 version1.11,2013-05-26 10:40:00,
2013-05-26 06:45:00,39.9,34.6,30.31,ENE,67,0.0,0.0,81,0.00,,,-99.99,open2300 version1.11,2013-05-26 10:45:00,
2013-05-26 06:50:00,40.1,34.7,30.31,ENE,67,0.0,0.0,81,0.00,,,-99.99,open2300 version1.11,2013-05-26 10:50:00,
2013-05-26 06:55:00,40.3,34.9,30.31,ENE,67,0.0,0.0,81,0.00,,,-99.99,open2300 version1.11,2013-05-26 10:55:00,
2013-05-26 07:00:00,40.6,35.5,30.31,ENE,67,0.0,0.0,82,0.00,,,-99.99,open2300 version1.11,2013-05-26 11:00:00,
2013-05-26 07:10:00,41.5,36.4,30.31,ENE,67,0.0,0.0,82,0.00,,,-99.99,open2300 version1.11,2013-05-26 11:10:00,
2013-05-26 07:20:00,42.8,37.6,30.31,ENE,67,0.0,0.0,82,0.00,,,-99.99,open2300 version1.11,2013-05-26 11:20:00,
2013-05-26 07:25:00,43.7,38.5,30.31,ENE,67,0.0,0.0,82,0.00,,,-99.99,open2300 version1.11,2013-05-26 11:25:00,
2013-05-26 07:30:00,45.1,39.7,30.31,ENE,67,0.0,0.0,81,0.00,,,-99.99,open2300 version1.11,2013-05-26 11:30:00,
2013-05-26 07:35:00,46.4,40.6,30.31,ENE,67,0.0,0.0,80,0.00,,,-99.99,open2300 version1.11,2013-05-26 11:35:00,
2013-05-26 07:40:00,47.8,41.9,30.31,ENE,67,0.0,0.0,80,0.00,,,-99.99,open2300 version1.11,2013-05-26 11:40:00,
2013-05-26 07:50:00,49.8,43.2,30.31,WNW,292,0.0,0.0,78,0.00,,,-99.99,open2300 version1.11,2013-05-26 11:50:00,
2013-05-26 07:55:00,50.7,43.8,30.31,WNW,292,0.0,0.0,77,0.00,,,-99.99,open2300 version1.11,2013-05-26 11:55:00,
2013-05-26 08:05:00,51.6,44.3,30.31,WNW,292,0.0,0.0,76,0.00,,,-99.99,open2300 version1.11,2013-05-26 12:05:00,
2013-05-26 08:15:00,52.7,45.0,30.31,WNW,292,0.0,0.0,75,0.00,,,-99.99,open2300 version1.11,2013-05-26 12:15:00,
2013-05-26 08:20:00,53.4,45.3,30.31,WNW,292,0.0,0.0,74,0.00,,,-99.99,open2300 version1.11,2013-05-26 12:20:00,
2013-05-26 08:25:00,54.0,45.8,30.31,WNW,292,0.0,0.0,74,0.00,,,-99.99,open2300 version1.11,2013-05-26 12:25:00,
2013-05-26 08:35:00,54.7,45.8,30.31,WNW,292,0.0,0.0,72,0.00,,,-99.99,open2300 version1.11,2013-05-26 12:35:00,
2013-05-26 08:40:00,55.0,45.5,30.31,WNW,292,0.0,0.0,70,0.00,,,-99.99,open2300 version1.11,2013-05-26 12:40:00,
2013-05-26 08:45:00,55.2,44.4,30.31,WNW,292,0.0,0.0,67,0.00,,,-99.99,open2300 version1.11,2013-05-26 12:45:00,
2013-05-26 08:50:00,55.6,44.0,30.31,WNW,292,0.0,0.0,65,0.00,,,-99.99,open2300 version1.11,2013-05-26 12:50:00,
2013-05-26 08:55:00,55.8,43.3,30.31,WNW,292,0.0,0.0,63,0.00,,,-99.99,open2300 version1.11,2013-05-26 12:55:00,
2013-05-26 09:00:00,56.1,43.2,30.32,WNW,292,0.0,0.0,62,0.00,,,-99.99,open2300 version1.11,2013-05-26 13:00:00,
2013-05-26 09:05:00,56.5,43.6,30.32,WNW,292,0.0,0.0,62,0.00,,,-99.99,open2300 version1.11,2013-05-26 13:05:00,
2013-05-26 09:10:00,56.7,43.4,30.32,WNW,292,0.0,0.0,61,0.00,,,-99.99,open2300 version1.11,2013-05-26 13:10:00,
2013-05-26 09:15:00,56.8,42.7,30.32,WNW,292,0.0,0.0,59,0.00,,,-99.99,open2300 version1.11,2013-05-26 13:15:00,
2013-05-26 09:20:00,57.2,42.6,30.32,WNW,292,0.0,0.0,58,0.00,,,-99.99,open2300 version1.11,2013-05-26 13:20:00,
2013-05-26 09:25:00,57.6,42.4,30.33,WNW,292,0.0,0.0,57,0.00,,,-99.99,open2300 version1.11,2013-05-26 13:25:00,
2013-05-26 09:30:00,57.9,42.3,30.33,WNW,292,0.0,0.0,56,0.00,,,-99.99,open2300 version1.11,2013-05-26 13:30:00,
2013-05-26 09:40:00,58.1,40.6,30.32,South,180,0.0,0.7,52,0.00,,,-99.99,open2300 version1.11,2013-05-26 13:40:00,
2013-05-26 09:45:00,58.5,40.9,30.32,South,180,0.0,0.0,52,0.00,,,-99.99,open2300 version1.11,2013-05-26 13:45:00,
2013-05-26 09:50:00,58.6,41.1,30.31,South,180,0.0,0.0,52,0.00,,,-99.99,open2300 version1.11,2013-05-26 13:50:00,
2013-05-26 09:55:00,58.8,40.3,30.32,South,180,0.0,0.7,50,0.00,,,-99.99,open2300 version1.11,2013-05-26 13:55:00,
2013-05-26 10:00:00,59.2,41.1,30.31,South,180,0.0,0.0,51,0.00,,,-99.99,open2300 version1.11,2013-05-26 14:00:00,
2013-05-26 10:05:00,59.2,40.0,30.32,South,180,0.1,0.9,49,0.00,,,-99.99,open2300 version1.11,2013-05-26 14:05:00,
2013-05-26 10:10:00,59.5,40.4,30.31,South,180,0.1,2.5,49,0.00,,,-99.99,open2300 version1.11,2013-05-26 14:10:00,
2013-05-26 10:15:00,59.7,40.5,30.32,SSW,199,0.1,1.6,49,0.00,,,-99.99,open2300 version1.11,2013-05-26 14:15:00,
2013-05-26 10:20:00,59.9,40.1,30.31,ENE,61,0.5,4.5,48,0.00,,,-99.99,open2300 version1.11,2013-05-26 14:20:00,
2013-05-26 10:25:00,60.1,39.7,30.31,ENE,67,0.3,1.8,47,0.00,,,-99.99,open2300 version1.11,2013-05-26 14:25:00,
2013-05-26 10:35:00,60.6,39.6,30.30,East,90,0.2,2.2,46,0.00,,,-99.99,open2300 version1.11,2013-05-26 14:35:00,
2013-05-26 10:40:00,60.6,39.6,30.30,East,83,0.3,2.0,46,0.00,,,-99.99,open2300 version1.11,2013-05-26 14:40:00,
2013-05-26 10:45:00,61.0,39.9,30.30,NNE,15,0.1,1.1,46,0.00,,,-99.99,open2300 version1.11,2013-05-26 14:45:00,
2013-05-26 10:50:00,61.3,39.1,30.30,East,97,0.8,3.8,44,0.00,,,-99.99,open2300 version1.11,2013-05-26 14:50:00,
2013-05-26 11:00:00,61.5,39.3,30.30,South,180,0.1,2.0,44,0.00,,,-99.99,open2300 version1.11,2013-05-26 15:00:00,
2013-05-26 11:05:00,61.9,39.0,30.30,SSW,202,0.0,0.5,43,0.00,,,-99.99,open2300 version1.11,2013-05-26 15:05:00,
2013-05-26 11:10:00,62.2,38.8,30.30,SSW,202,0.0,0.0,42,0.00,,,-99.99,open2300 version1.11,2013-05-26 15:10:00,
2013-05-26 11:15:00,62.4,38.9,30.30,SSW,202,0.2,2.0,42,0.00,,,-99.99,open2300 version1.11,2013-05-26 15:15:00,
2013-05-26 11:25:00,62.6,39.1,30.30,WSW,248,1.2,3.1,42,0.00,,,-99.99,open2300 version1.11,2013-05-26 15:25:00,
2013-05-26 11:35:00,63.1,39.0,30.30,West,270,0.3,1.3,41,0.00,,,-99.99,open2300 version1.11,2013-05-26 15:35:00,
2013-05-26 11:40:00,63.1,39.0,30.30,West,270,0.0,0.5,41,0.00,,,-99.99,open2300 version1.11,2013-05-26 15:40:00,
2013-05-26 11:45:00,63.3,39.2,30.30,WNW,282,0.8,3.6,41,0.00,,,-99.99,open2300 version1.11,2013-05-26 15:45:00,
2013-05-26 11:50:00,63.3,39.2,30.30,WNW,288,0.4,1.8,41,0.00,,,-99.99,open2300 version1.11,2013-05-26 15:50:00,
2013-05-26 11:55:00,63.5,38.0,30.30,WNW,302,0.8,4.9,39,0.00,,,-99.99,open2300 version1.11,2013-05-26 15:55:00,
2013-05-26 12:00:00,63.7,38.2,30.30,East,91,0.8,3.6,39,0.00,,,-99.99,open2300 version1.11,2013-05-26 16:00:00,
2013-05-26 12:05:00,63.7,37.5,30.30,ENE,59,1.1,4.5,38,0.00,,,-99.99,open2300 version1.11,2013-05-26 16:05:00,
2013-05-26 12:15:00,63.7,37.5,30.30,WNW,285,0.2,3.1,38,0.00,,,-99.99,open2300 version1.11,2013-05-26 16:15:00,
2013-05-26 12:20:00,63.9,38.4,30.30,ESE,109,0.6,4.7,39,0.00,,,-99.99,open2300 version1.11,2013-05-26 16:20:00,
2013-05-26 12:25:00,63.9,37.6,30.30,ESE,105,0.8,2.9,38,0.00,,,-99.99,open2300 version1.11,2013-05-26 16:25:00,
2013-05-26 12:30:00,64.0,37.8,30.30,East,84,0.9,2.7,38,0.00,,,-99.99,open2300 version1.11,2013-05-26 16:30:00,
2013-05-26 12:35:00,64.0,37.8,30.30,East,98,0.8,4.5,38,0.00,,,-99.99,open2300 version1.11,2013-05-26 16:35:00,
2013-05-26 12:40:00,64.4,38.1,30.30,NE,41,0.1,0.9,38,0.00,,,-99.99,open2300 version1.11,2013-05-26 16:40:00,
2013-05-26 12:45:00,64.8,39.2,30.30,NNE,15,0.1,3.1,39,0.00,,,-99.99,open2300 version1.11,2013-05-26 16:45:00,
2013-05-26 12:50:00,64.9,37.9,30.30,NNE,20,0.5,4.2,37,0.00,,,-99.99,open2300 version1.11,2013-05-26 16:50:00,
2013-05-26 12:55:00,65.1,38.8,30.30,ENE,74,0.4,1.8,38,0.00,,,-99.99,open2300 version1.11,2013-05-26 16:55:00,
2013-05-26 13:00:00,65.5,38.4,30.30,NE,39,0.2,1.3,37,0.00,,,-99.99,open2300 version1.11,2013-05-26 17:00:00,
2013-05-26 13:05:00,65.8,38.7,30.30,NE,45,0.7,2.5,37,0.00,,,-99.99,open2300 version1.11,2013-05-26 17:05:00,
2013-05-26 13:15:00,66.2,39.0,30.29,NE,49,0.4,2.2,37,0.00,,,-99.99,open2300 version1.11,2013-05-26 17:15:00,
2013-05-26 13:20:00,66.6,40.0,30.30,ENE,67,1.0,3.8,38,0.00,,,-99.99,open2300 version1.11,2013-05-26 17:20:00,
2013-05-26 13:25:00,66.4,39.2,30.29,East,87,0.7,5.1,37,0.00,,,-99.99,open2300 version1.11,2013-05-26 17:25:00,
2013-05-26 13:30:00,66.4,39.2,30.29,ESE,112,0.2,1.3,37,0.00,,,-99.99,open2300 version1.11,2013-05-26 17:30:00,
2013-05-26 13:35:00,66.7,40.2,30.29,SE,125,0.2,1.3,38,0.00,,,-99.99,open2300 version1.11,2013-05-26 17:35:00,
2013-05-26 13:40:00,67.3,40.7,30.29,SSW,200,0.7,2.9,38,0.00,,,-99.99,open2300 version1.11,2013-05-26 17:40:00,
2013-05-26 13:45:00,67.8,40.4,30.29,WSW,247,0.0,0.7,37,0.00,,,-99.99,open2300 version1.11,2013-05-26 17:45:00,
2013-05-26 13:50:00,67.8,39.7,30.29,East,85,0.9,4.5,36,0.00,,,-99.99,open2300 version1.11,2013-05-26 17:50:00,
2013-05-26 13:55:00,67.8,39.7,30.29,ESE,112,0.4,2.0,36,0.00,,,-99.99,open2300 version1.11,2013-05-26 17:55:00,
2013-05-26 14:05:00,68.5,41.1,30.29,South,180,0.1,0.9,37,0.00,,,-99.99,open2300 version1.11,2013-05-26 18:05:00,
2013-05-26 14:10:00,68.7,41.2,30.28,South,180,0.2,2.5,37,0.00,,,-99.99,open2300 version1.11,2013-05-26 18:10:00,
2013-05-26 14:20:00,68.9,41.4,30.28,SSE,150,0.1,1.1,37,0.00,,,-99.99,open2300 version1.11,2013-05-26 18:20:00,
2013-05-26 14:25:00,69.1,41.6,30.28,NNE,16,1.1,3.8,37,0.00,,,-99.99,open2300 version1.11,2013-05-26 18:25:00,
2013-05-26 14:30:00,68.9,39.9,30.29,NNW,335,0.5,2.5,35,0.00,,,-99.99,open2300 version1.11,2013-05-26 18:30:00,
2013-05-26 14:35:00,68.7,40.5,30.28,NNW,337,0.0,0.0,36,0.00,,,-99.99,open2300 version1.11,2013-05-26 18:35:00,
2013-05-26 14:40:00,68.5,40.3,30.28,ENE,72,1.4,5.8,36,0.00,,,-99.99,open2300 version1.11,2013-05-26 18:40:00,
2013-05-26 14:45:00,68.4,40.2,30.28,East,80,1.1,3.6,36,0.00,,,-99.99,open2300 version1.11,2013-05-26 18:45:00,
2013-05-26 14:50:00,68.2,40.0,30.28,NNE,22,0.1,1.3,36,0.00,,,-99.99,open2300 version1.11,2013-05-26 18:50:00,
2013-05-26 14:55:00,68.4,40.2,30.28,ENE,72,0.9,3.8,36,0.00,,,-99.99,open2300 version1.11,2013-05-26 18:55:00,
2013-05-26 15:05:00,67.8,39.0,30.27,ENE,67,0.1,0.9,35,0.00,,,-99.99,open2300 version1.11,2013-05-26 19:05:00,
2013-05-26 15:15:00,67.8,40.4,30.27,East,90,0.0,0.0,37,0.00,,,-99.99,open2300 version1.11,2013-05-26 19:15:00,
2013-05-26 15:20:00,67.8,39.7,30.27,NE,36,1.1,3.6,36,0.00,,,-99.99,open2300 version1.11,2013-05-26 19:20:00,
2013-05-26 15:30:00,68.0,39.9,30.27,WNW,292,0.0,0.0,36,0.00,,,-99.99,open2300 version1.11,2013-05-26 19:30:00,
2013-05-26 15:40:00,68.2,40.8,30.27,NNE,22,0.0,0.7,37,0.00,,,-99.99,open2300 version1.11,2013-05-26 19:40:00,
2013-05-26 15:45:00,67.8,40.4,30.26,NNW,335,0.5,2.2,37,0.00,,,-99.99,open2300 version1.11,2013-05-26 19:45:00,
2013-05-26 15:50:00,67.8,40.4,30.26,NNE,20,0.3,2.5,37,0.00,,,-99.99,open2300 version1.11,2013-05-26 19:50:00,
2013-05-26 15:55:00,67.6,40.3,30.26,NE,56,0.8,2.7,37,0.00,,,-99.99,open2300 version1.11,2013-05-26 19:55:00,
2013-05-26 16:00:00,67.1,39.8,30.26,East,98,0.8,4.7,37,0.00,,,-99.99,open2300 version1.11,2013-05-26 20:00:00,
2013-05-26 16:05:00,66.9,39.6,30.26,East,93,0.2,2.0,37,0.00,,,-99.99,open2300 version1.11,2013-05-26 20:05:00,
2013-05-26 16:10:00,66.9,38.9,30.26,ENE,70,0.1,0.9,36,0.00,,,-99.99,open2300 version1.11,2013-05-26 20:10:00,
2013-05-26 16:20:00,67.1,39.8,30.25,ENE,67,0.1,1.1,37,0.00,,,-99.99,open2300 version1.11,2013-05-26 20:20:00,
2013-05-26 16:25:00,67.3,40.7,30.25,ENE,73,0.7,1.8,38,0.00,,,-99.99,open2300 version1.11,2013-05-26 20:25:00,
2013-05-26 16:30:00,67.6,40.3,30.25,SSW,202,0.2,1.6,37,0.00,,,-99.99,open2300 version1.11,2013-05-26 20:30:00,
2013-05-26 16:35:00,67.8,40.4,30.25,SSW,202,0.1,1.6,37,0.00,,,-99.99,open2300 version1.11,2013-05-26 20:35:00,
2013-05-26 16:40:00,68.0,40.6,30.25,South,180,0.0,0.9,37,0.00,,,-99.99,open2300 version1.11,2013-05-26 20:40:00,
2013-05-26 16:50:00,68.2,40.0,30.25,South,180,0.3,2.0,36,0.00,,,-99.99,open2300 version1.11,2013-05-26 20:50:00,
2013-05-26 16:55:00,68.2,40.0,30.25,North,0,0.5,2.9,36,0.00,,,-99.99,open2300 version1.11,2013-05-26 20:55:00,
2013-05-26 17:00:00,68.2,40.0,30.25,NNE,31,0.3,2.7,36,0.00,,,-99.99,open2300 version1.11,2013-05-26 21:00:00,
2013-05-26 17:05:00,68.0,39.9,30.25,East,90,0.3,2.7,36,0.00,,,-99.99,open2300 version1.11,2013-05-26 21:05:00,
2013-05-26 17:10:00,67.8,39.7,30.24,East,90,0.0,0.5,36,0.00,,,-99.99,open2300 version1.11,2013-05-26 21:10:00,
2013-05-26 17:15:00,67.8,40.4,30.24,East,90,0.0,0.0,37,0.00,,,-99.99,open2300 version1.11,2013-05-26 21:15:00,
2013-05-26 17:20:00,67.8,39.7,30.24,ENE,67,0.0,0.0,36,0.00,,,-99.99,open2300 version1.11,2013-05-26 21:20:00,
2013-05-26 17:25:00,67.6,40.3,30.24,NE,45,0.0,0.7,37,0.00,,,-99.99,open2300 version1.11,2013-05-26 21:25:00,
2013-05-26 17:30:00,67.3,40.0,30.24,NNE,22,0.1,1.6,37,0.00,,,-99.99,open2300 version1.11,2013-05-26 21:30:00,
2013-05-26 17:35:00,67.1,39.8,30.24,NNE,22,0.3,2.0,37,0.00,,,-99.99,open2300 version1.11,2013-05-26 21:35:00,
2013-05-26 17:40:00,66.9,40.4,30.24,NNE,22,0.1,1.1,38,0.00,,,-99.99,open2300 version1.11,2013-05-26 21:40:00,
2013-05-26 17:50:00,66.9,40.4,30.23,NNW,337,0.0,0.0,38,0.00,,,-99.99,open2300 version1.11,2013-05-26 21:50:00,
2013-05-26 17:55:00,66.7,40.9,30.24,WNW,292,0.0,0.0,39,0.00,,,-99.99,open2300 version1.11,2013-05-26 21:55:00,
2013-05-26 18:00:00,66.7,40.2,30.24,WNW,292,0.0,0.0,38,0.00,,,-99.99,open2300 version1.11,2013-05-26 22:00:00,
2013-05-26 18:05:00,66.7,40.2,30.24,NE,45,0.2,2.2,38,0.00,,,-99.99,open2300 version1.11,2013-05-26 22:05:00,
2013-05-26 18:10:00,66.7,40.9,30.24,NE,45,0.0,1.6,39,0.00,,,-99.99,open2300 version1.11,2013-05-26 22:10:00,
2013-05-26 18:15:00,66.6,40.0,30.24,NE,45,0.0,0.9,38,0.00,,,-99.99,open2300 version1.11,2013-05-26 22:15:00,
2013-05-26 18:20:00,66.4,39.9,30.24,NE,55,0.3,2.0,38,0.00,,,-99.99,open2300 version1.11,2013-05-26 22:20:00,
2013-05-26 18:25:00,66.2,39.7,30.23,ENE,67,0.7,2.0,38,0.00,,,-99.99,open2300 version1.11,2013-05-26 22:25:00,
2013-05-26 18:30:00,66.0,39.6,30.24,ENE,67,0.2,1.3,38,0.00,,,-99.99,open2300 version1.11,2013-05-26 22:30:00,
2013-05-26 18:35:00,66.0,39.6,30.23,ENE,67,0.0,0.0,38,0.00,,,-99.99,open2300 version1.11,2013-05-26 22:35:00,
2013-05-26 18:40:00,66.0,40.3,30.23,ENE,67,0.0,0.0,39,0.00,,,-99.99,open2300 version1.11,2013-05-26 22:40:00,
2013-05-26 18:50:00,65.8,40.1,30.23,East,90,0.0,0.0,39,0.00,,,-99.99,open2300 version1.11,2013-05-26 22:50:00,
2013-05-26 18:55:00,65.7,40.0,30.22,East,90,0.6,2.2,39,0.00,,,-99.99,open2300 version1.11,2013-05-26 22:55:00,
2013-05-26 19:00:00,65.7,40.0,30.22,East,90,0.0,0.0,39,0.00,,,-99.99,open2300 version1.11,2013-05-26 23:00:00,
2013-05-26 19:05:00,65.5,39.8,30.23,East,90,0.0,0.0,39,0.00,,,-99.99,open2300 version1.11,2013-05-26 23:05:00,
2013-05-26 19:10:00,65.5,39.8,30.23,East,90,0.1,1.1,39,0.00,,,-99.99,open2300 version1.11,2013-05-26 23:10:00,
2013-05-26 19:15:00,65.3,40.4,30.22,East,90,0.1,0.7,40,0.00,,,-99.99,open2300 version1.11,2013-05-26 23:15:00,
2013-05-26 19:20:00,65.3,40.4,30.22,East,90,0.0,0.0,40,0.00,,,-99.99,open2300 version1.11,2013-05-26 23:20:00,
2013-05-26 19:25:00,65.1,40.2,30.23,East,90,0.0,0.0,40,0.00,,,-99.99,open2300 version1.11,2013-05-26 23:25:00,
2013-05-26 19:30:00,65.1,40.2,30.22,East,90,0.0,0.0,40,0.00,,,-99.99,open2300 version1.11,2013-05-26 23:30:00,
2013-05-26 19:35:00,64.9,40.0,30.23,East,90,0.1,0.7,40,0.00,,,-99.99,open2300 version1.11,2013-05-26 23:35:00,
2013-05-26 19:45:00,64.8,40.5,30.22,East,90,0.0,0.0,41,0.00,,,-99.99,open2300 version1.11,2013-05-26 23:45:00,
2013-05-26 19:50:00,64.6,40.3,30.22,East,90,0.0,0.0,41,0.00,,,-99.99,open2300 version1.11,2013-05-26 23:50:00,
2013-05-26 19:55:00,64.6,40.3,30.21,East,90,0.0,0.0,41,0.00,,,-99.99,open2300 version1.11,2013-05-26 23:55:00,
2013-05-26 20:05:00,64.2,40.5,30.22,East,90,0.0,0.0,42,0.00,,,-99.99,open2300 version1.11,2013-05-27 00:05:00,
2013-05-26 20:10:00,64.0,40.4,30.22,East,90,0.0,0.0,42,0.00,,,-99.99,open2300 version1.11,2013-05-27 00:10:00,
2013-05-26 20:20:00,63.3,40.3,30.21,East,90,0.1,0.9,43,0.00,,,-99.99,open2300 version1.11,2013-05-27 00:20:00,
2013-05-26 20:25:00,63.0,40.0,30.21,East,94,1.2,3.8,43,0.00,,,-99.99,open2300 version1.11,2013-05-27 00:25:00,
2013-05-26 20:35:00,62.2,39.9,30.21,ESE,106,1.2,4.0,44,0.00,,,-99.99,open2300 version1.11,2013-05-27 00:35:00,
2013-05-26 20:45:00,61.3,39.1,30.22,ENE,67,0.1,1.8,44,0.00,,,-99.99,open2300 version1.11,2013-05-27 00:45:00,
2013-05-26 20:50:00,61.0,39.4,30.22,ENE,67,0.1,0.9,45,0.00,,,-99.99,open2300 version1.11,2013-05-27 00:50:00,
2013-05-26 20:55:00,60.8,39.2,30.22,ENE,67,0.0,0.7,45,0.00,,,-99.99,open2300 version1.11,2013-05-27 00:55:00,
2013-05-26 21:00:00,60.6,39.0,30.22,ENE,67,0.0,0.0,45,0.00,,,-99.99,open2300 version1.11,2013-05-27 01:00:00,
2013-05-26 21:05:00,60.4,38.9,30.22,ENE,67,0.0,0.0,45,0.00,,,-99.99,open2300 version1.11,2013-05-27 01:05:00,
2013-05-26 21:10:00,60.1,39.1,30.22,SE,135,0.1,1.3,46,0.00,,,-99.99,open2300 version1.11,2013-05-27 01:10:00,
2013-05-26 21:15:00,60.1,39.1,30.22,SE,135,0.0,0.0,46,0.00,,,-99.99,open2300 version1.11,2013-05-27 01:15:00,
2013-05-26 21:20:00,59.7,38.8,30.22,SE,135,0.0,0.0,46,0.00,,,-99.99,open2300 version1.11,2013-05-27 01:20:00,
2013-05-26 21:30:00,59.4,39.1,30.22,SE,135,0.0,0.0,47,0.00,,,-99.99,open2300 version1.11,2013-05-27 01:30:00,
2013-05-26 21:35:00,59.2,39.5,30.22,SE,135,0.0,0.0,48,0.00,,,-99.99,open2300 version1.11,2013-05-27 01:35:00,
2013-05-26 21:45:00,58.6,39.6,30.23,SE,135,0.2,2.0,49,0.00,,,-99.99,open2300 version1.11,2013-05-27 01:45:00,
2013-05-26 21:50:00,58.3,39.8,30.23,SE,135,0.0,0.0,50,0.00,,,-99.99,open2300 version1.11,2013-05-27 01:50:00,
2013-05-26 21:55:00,57.9,39.5,30.23,SE,135,0.0,0.0,50,0.00,,,-99.99,open2300 version1.11,2013-05-27 01:55:00,
2013-05-26 22:00:00,57.7,39.8,30.23,SE,135,0.0,0.0,51,0.00,,,-99.99,open2300 version1.11,2013-05-27 02:00:00,
2013-05-26 22:05:00,57.6,39.6,30.23,SE,135,0.0,0.0,51,0.00,,,-99.99,open2300 version1.11,2013-05-27 02:05:00,
2013-05-26 22:10:00,57.2,39.3,30.23,SE,135,0.0,0.7,51,0.00,,,-99.99,open2300 version1.11,2013-05-27 02:10:00,
2013-05-26 22:15:00,57.0,39.6,30.23,SE,135,0.0,0.0,52,0.00,,,-99.99,open2300 version1.11,2013-05-27 02:15:00,
2013-05-26 22:20:00,56.8,39.4,30.23,SE,135,0.0,0.0,52,0.00,,,-99.99,open2300 version1.11,2013-05-27 02:20:00,
2013-05-26 22:25:00,56.7,39.2,30.23,SE,135,0.0,0.0,52,0.00,,,-99.99,open2300 version1.11,2013-05-27 02:25:00,
2013-05-26 22:30:00,56.5,39.5,30.23,SE,135,0.0,0.0,53,0.00,,,-99.99,open2300 version1.11,2013-05-27 02:30:00,
2013-05-26 22:35:00,56.1,39.6,30.23,SE,135,0.0,0.0,54,0.00,,,-99.99,open2300 version1.11,2013-05-27 02:35:00,
2013-05-26 22:40:00,55.8,39.7,30.23,SE,135,0.0,0.0,55,0.00,,,-99.99,open2300 version1.11,2013-05-27 02:40:00,
2013-05-26 22:50:00,55.0,39.5,30.24,SE,135,0.0,0.0,56,0.00,,,-99.99,open2300 version1.11,2013-05-27 02:50:00,
2013-05-26 22:55:00,54.5,39.5,30.24,SE,135,0.0,0.0,57,0.00,,,-99.99,open2300 version1.11,2013-05-27 02:55:00,
2013-05-26 23:00:00,54.1,39.2,30.24,SE,135,0.0,0.0,57,0.00,,,-99.99,open2300 version1.11,2013-05-27 03:00:00,
2013-05-26 23:05:00,53.8,39.3,30.24,SE,135,0.0,0.0,58,0.00,,,-99.99,open2300 version1.11,2013-05-27 03:05:00,
2013-05-26 23:10:00,53.4,39.0,30.24,SE,135,0.0,0.0,58,0.00,,,-99.99,open2300 version1.11,2013-05-27 03:10:00,
2013-05-26 23:15:00,53.1,39.1,30.24,SE,135,0.0,0.0,59,0.00,,,-99.99,open2300 version1.11,2013-05-27 03:15:00,
2013-05-26 23:20:00,52.7,39.2,30.24,SE,135,0.0,0.0,60,0.00,,,-99.99,open2300 version1.11,2013-05-27 03:20:00,
2013-05-26 23:25:00,52.3,39.2,30.24,SE,135,0.0,0.0,61,0.00,,,-99.99,open2300 version1.11,2013-05-27 03:25:00,
2013-05-26 23:30:00,52.3,39.2,30.24,SE,135,0.0,0.0,61,0.00,,,-99.99,open2300 version1.11,2013-05-27 03:30:00,
2013-05-26 23:35:00,52.0,39.3,30.24,SE,135,0.0,0.0,62,0.00,,,-99.99,open2300 version1.11,2013-05-27 03:35:00,
2013-05-26 23:45:00,51.6,39.0,30.24,SE,135,0.0,0.0,62,0.00,,,-99.99,open2300 version1.11,2013-05-27 03:45:00,
2013-05-26 23:50:00,51.3,39.0,30.24,SE,135,0.0,0.0,63,0.00,,,-99.99,open2300 version1.11,2013-05-27 03:50:00,
2013-05-26 23:55:00,51.1,38.9,30.24,SE,135,0.0,0.0,63,0.00,,,-99.99,open2300 version1.11,2013-05-27 03:55:00,